createdAt,value
2019-03-26T00:01:08.719Z,6.41
2019-03-26T00:02:16.993Z,6.42
2019-03-26T00:03:24.865Z,6.43
2019-03-26T00:04:33.152Z,6.44
2019-03-26T00:05:41.295Z,6.45
2019-03-26T00:06:49.192Z,6.44
2019-03-26T00:07:57.101Z,6.44
2019-03-26T00:09:07.925Z,6.43
2019-03-26T00:10:15.732Z,6.44
2019-03-26T00:11:23.938Z,6.46
2019-03-26T00:12:32.050Z,6.48
2019-03-26T00:13:40.125Z,6.47
2019-03-26T00:14:48.124Z,6.53
2019-03-26T00:15:55.983Z,6.54
2019-03-26T00:17:04.115Z,6.55
2019-03-26T00:18:12.203Z,6.54
2019-03-26T00:19:20.700Z,6.54
2019-03-26T00:20:28.477Z,6.53
2019-03-26T00:21:36.623Z,6.50
2019-03-26T00:22:44.809Z,6.50
2019-03-26T00:23:52.843Z,6.51
2019-03-26T00:25:01.125Z,6.51
2019-03-26T00:26:09.121Z,6.49
2019-03-26T00:27:17.181Z,6.49
2019-03-26T00:28:25.386Z,6.52
2019-03-26T00:29:33.277Z,6.48
2019-03-26T00:30:41.479Z,6.55
2019-03-26T00:31:49.780Z,6.57
2019-03-26T00:32:57.646Z,6.53
2019-03-26T00:34:18.402Z,6.55
2019-03-26T00:35:15.478Z,6.52
2019-03-26T00:36:23.442Z,6.50
2019-03-26T00:37:31.696Z,6.45
2019-03-26T00:38:39.852Z,6.45
2019-03-26T00:39:47.993Z,6.45
2019-03-26T00:40:55.833Z,6.42
2019-03-26T00:42:03.828Z,6.39
2019-03-26T00:43:11.849Z,6.38
2019-03-26T00:44:19.867Z,6.35
2019-03-26T00:45:27.851Z,6.36
2019-03-26T00:46:36.054Z,6.33
2019-03-26T00:47:44.161Z,6.35
2019-03-26T00:48:51.895Z,6.35
2019-03-26T00:49:59.932Z,6.34
2019-03-26T00:51:07.916Z,6.37
2019-03-26T00:52:15.894Z,6.38
2019-03-26T00:53:23.966Z,6.36
2019-03-26T00:54:31.809Z,6.41
2019-03-26T00:55:39.848Z,6.43
2019-03-26T00:56:47.767Z,6.45
2019-03-26T00:57:55.901Z,6.50
2019-03-26T00:59:03.988Z,6.47
2019-03-26T01:00:13.521Z,6.48
2019-03-26T01:01:21.615Z,6.47
2019-03-26T01:02:29.608Z,6.50
2019-03-26T01:03:37.499Z,6.53
2019-03-26T01:04:45.600Z,6.58
2019-03-26T01:05:53.506Z,6.56
2019-03-26T01:07:01.620Z,6.59
2019-03-26T01:08:09.832Z,6.62
2019-03-26T01:09:17.828Z,6.59
2019-03-26T01:10:29.442Z,6.53
2019-03-26T01:11:38.376Z,6.52
2019-03-26T01:12:46.375Z,6.54
2019-03-26T01:13:54.259Z,6.48
2019-03-26T01:15:02.481Z,6.49
2019-03-26T01:16:10.535Z,6.51
2019-03-26T01:17:18.571Z,6.57
2019-03-26T01:18:26.314Z,6.58
2019-03-26T01:19:34.359Z,6.62
2019-03-26T01:20:42.485Z,6.66
2019-03-26T01:21:50.866Z,6.61
2019-03-26T01:22:58.913Z,6.60
2019-03-26T01:24:07.036Z,6.56
2019-03-26T01:25:15.164Z,6.51
2019-03-26T01:26:23.144Z,6.48
2019-03-26T01:27:31.350Z,6.48
2019-03-26T01:28:39.308Z,6.52
2019-03-26T01:29:47.593Z,6.53
2019-03-26T01:30:55.613Z,6.55
2019-03-26T01:32:03.481Z,6.55
2019-03-26T01:33:11.611Z,6.48
2019-03-26T01:34:19.372Z,6.46
2019-03-26T01:35:27.189Z,6.48
2019-03-26T01:36:35.211Z,6.52
2019-03-26T01:37:42.917Z,6.52
2019-03-26T01:38:50.854Z,6.55
2019-03-26T01:39:58.984Z,6.57
2019-03-26T01:41:06.894Z,6.60
2019-03-26T01:42:15.166Z,6.61
2019-03-26T01:43:23.228Z,6.60
2019-03-26T01:44:31.238Z,6.62
2019-03-26T01:45:39.435Z,6.62
2019-03-26T01:46:47.567Z,6.66
2019-03-26T01:47:55.569Z,6.67
2019-03-26T01:49:03.601Z,6.64
2019-03-26T01:50:12.006Z,6.61
2019-03-26T01:51:20.155Z,6.57
2019-03-26T01:52:28.223Z,6.55
2019-03-26T01:53:36.347Z,6.53
2019-03-26T01:54:44.414Z,6.47
2019-03-26T01:55:52.580Z,6.47
2019-03-26T01:57:00.744Z,6.48
2019-03-26T01:58:08.856Z,6.45
2019-03-26T01:59:16.632Z,6.42
2019-03-26T02:00:24.941Z,6.38
2019-03-26T02:01:32.924Z,6.40
2019-03-26T02:02:40.824Z,6.44
2019-03-26T02:03:48.764Z,6.42
2019-03-26T02:05:00.219Z,6.32
2019-03-26T02:06:06.913Z,6.36
2019-03-26T02:07:14.949Z,6.38
2019-03-26T02:08:22.939Z,6.39
2019-03-26T02:09:31.399Z,6.44
2019-03-26T02:10:39.521Z,6.44
2019-03-26T02:11:47.408Z,6.47
2019-03-26T02:12:55.447Z,6.47
2019-03-26T02:14:03.425Z,6.52
2019-03-26T02:15:15.818Z,6.56
2019-03-26T02:16:23.689Z,6.61
2019-03-26T02:17:31.561Z,6.61
2019-03-26T02:18:39.682Z,6.65
2019-03-26T02:19:47.977Z,6.68
2019-03-26T02:20:55.859Z,6.70
2019-03-26T02:22:03.967Z,6.69
2019-03-26T02:23:11.841Z,6.71
2019-03-26T02:24:19.623Z,6.73
2019-03-26T02:25:27.907Z,6.74
2019-03-26T02:26:35.865Z,6.75
2019-03-26T02:27:43.623Z,6.77
2019-03-26T02:28:51.561Z,6.79
2019-03-26T02:29:59.419Z,6.81
2019-03-26T02:31:07.539Z,6.81
2019-03-26T02:32:15.627Z,6.80
2019-03-26T02:33:23.541Z,6.82
2019-03-26T02:34:31.627Z,6.81
2019-03-26T02:35:39.877Z,6.84
2019-03-26T02:36:48.153Z,6.86
2019-03-26T02:37:56.840Z,6.87
2019-03-26T02:39:06.676Z,6.91
2019-03-26T02:40:14.591Z,6.93
2019-03-26T02:41:22.768Z,6.95
2019-03-26T02:42:30.604Z,6.95
2019-03-26T02:43:39.149Z,6.96
2019-03-26T02:44:47.232Z,6.95
2019-03-26T02:45:54.984Z,6.96
2019-03-26T02:47:03.250Z,6.95
2019-03-26T02:48:11.210Z,6.95
2019-03-26T02:49:19.220Z,6.94
2019-03-26T02:50:27.231Z,6.93
2019-03-26T02:51:35.286Z,6.94
2019-03-26T02:52:43.314Z,6.97
2019-03-26T02:53:51.350Z,6.99
2019-03-26T02:54:59.364Z,6.96
2019-03-26T02:56:07.302Z,6.93
2019-03-26T02:57:15.199Z,6.96
2019-03-26T02:58:22.960Z,6.95
2019-03-26T02:59:30.986Z,6.97
2019-03-26T03:00:38.879Z,6.98
2019-03-26T03:01:46.967Z,6.99
2019-03-26T03:02:55.059Z,6.97
2019-03-26T03:04:03.312Z,6.97
2019-03-26T03:05:11.457Z,6.96
2019-03-26T03:06:19.367Z,6.96
2019-03-26T03:07:27.241Z,6.98
2019-03-26T03:08:35.101Z,6.96
2019-03-26T03:09:43.231Z,6.91
2019-03-26T03:10:51.250Z,6.94
2019-03-26T03:11:59.546Z,6.90
2019-03-26T03:13:07.521Z,6.91
2019-03-26T03:14:15.425Z,6.91
2019-03-26T03:15:23.418Z,6.93
2019-03-26T03:16:31.405Z,6.95
2019-03-26T03:17:39.609Z,6.96
2019-03-26T03:18:47.903Z,6.93
2019-03-26T03:19:55.866Z,6.96
2019-03-26T03:21:04.194Z,6.95
2019-03-26T03:22:12.191Z,6.96
2019-03-26T03:23:20.293Z,6.96
2019-03-26T03:24:28.406Z,6.97
2019-03-26T03:25:36.403Z,6.95
2019-03-26T03:26:44.554Z,6.88
2019-03-26T03:27:52.717Z,6.87
2019-03-26T03:29:00.614Z,6.88
2019-03-26T03:30:10.473Z,6.89
2019-03-26T03:31:18.414Z,6.91
2019-03-26T03:32:26.169Z,6.91
2019-03-26T03:33:34.049Z,6.91
2019-03-26T03:34:42.098Z,6.93
2019-03-26T03:35:52.459Z,6.91
2019-03-26T03:37:00.014Z,6.93
2019-03-26T03:38:08.038Z,6.94
2019-03-26T03:39:16.000Z,6.89
2019-03-26T03:40:24.048Z,6.90
2019-03-26T03:41:32.121Z,6.93
2019-03-26T03:42:40.193Z,6.96
2019-03-26T03:43:48.125Z,6.94
2019-03-26T03:44:55.954Z,6.91
2019-03-26T03:46:05.144Z,6.93
2019-03-26T03:47:16.540Z,6.91
2019-03-26T03:48:26.003Z,6.91
2019-03-26T03:49:35.170Z,6.88
2019-03-26T03:50:46.011Z,6.89
2019-03-26T03:51:58.523Z,6.90
2019-03-26T03:53:07.832Z,6.88
2019-03-26T03:54:16.701Z,6.88
2019-03-26T03:55:25.097Z,6.90
2019-03-26T03:56:35.446Z,6.91
2019-03-26T03:57:45.194Z,6.90
2019-03-26T03:58:53.758Z,6.94
2019-03-26T04:00:03.803Z,6.93
2019-03-26T04:01:11.878Z,6.93
2019-03-26T04:02:19.520Z,6.91
2019-03-26T04:03:27.570Z,6.94
2019-03-26T04:04:35.499Z,6.89
2019-03-26T04:05:43.399Z,6.88
2019-03-26T04:06:51.952Z,6.87
2019-03-26T04:08:00.966Z,6.84
2019-03-26T04:09:08.969Z,6.85
2019-03-26T04:10:16.963Z,6.87
2019-03-26T04:11:24.800Z,6.90
2019-03-26T04:12:32.823Z,6.93
2019-03-26T04:13:41.157Z,6.95
2019-03-26T04:14:49.201Z,6.95
2019-03-26T04:15:57.131Z,6.97
2019-03-26T04:17:05.172Z,6.97
2019-03-26T04:18:13.214Z,6.94
2019-03-26T04:19:21.313Z,6.94
2019-03-26T04:20:29.619Z,6.96
2019-03-26T04:21:37.570Z,6.96
2019-03-26T04:22:45.434Z,6.95
2019-03-26T04:23:53.396Z,6.96
2019-03-26T04:25:01.352Z,6.98
2019-03-26T04:26:09.403Z,6.97
2019-03-26T04:27:17.383Z,6.98
2019-03-26T04:28:25.389Z,6.95
2019-03-26T04:29:33.457Z,6.94
2019-03-26T04:30:41.681Z,6.95
2019-03-26T04:31:49.669Z,6.97
2019-03-26T04:32:57.714Z,6.99
2019-03-26T04:34:05.655Z,7.00
2019-03-26T04:35:13.878Z,6.98
2019-03-26T04:36:25.899Z,6.97
2019-03-26T04:37:31.380Z,6.94
2019-03-26T04:38:39.384Z,6.95
2019-03-26T04:39:47.972Z,6.95
2019-03-26T04:40:56.025Z,6.96
2019-03-26T04:42:04.069Z,6.89
2019-03-26T04:43:11.990Z,6.88
2019-03-26T04:44:19.970Z,6.83
2019-03-26T04:45:27.953Z,6.77
2019-03-26T04:46:35.960Z,6.74
2019-03-26T04:47:43.928Z,6.75
2019-03-26T04:48:51.921Z,6.72
2019-03-26T04:50:00.540Z,6.72
2019-03-26T04:51:08.436Z,6.74
2019-03-26T04:52:16.326Z,6.77
2019-03-26T04:53:24.276Z,6.72
2019-03-26T04:54:32.114Z,6.72
2019-03-26T04:55:40.044Z,6.75
2019-03-26T04:56:48.136Z,6.72
2019-03-26T04:57:56.631Z,6.68
2019-03-26T04:59:04.496Z,6.67
2019-03-26T05:00:13.033Z,6.65
2019-03-26T05:01:21.145Z,6.63
2019-03-26T05:02:29.090Z,6.59
2019-03-26T05:03:37.339Z,6.59
2019-03-26T05:04:45.043Z,6.62
2019-03-26T05:05:52.877Z,6.55
2019-03-26T05:07:01.319Z,6.55
2019-03-26T05:08:09.064Z,6.48
2019-03-26T05:09:16.848Z,6.41
2019-03-26T05:10:24.852Z,6.37
2019-03-26T05:11:32.600Z,6.33
2019-03-26T05:12:40.676Z,6.27
2019-03-26T05:13:48.521Z,6.25
2019-03-26T05:14:56.262Z,6.24
2019-03-26T05:16:04.610Z,6.20
2019-03-26T05:17:12.429Z,6.21
2019-03-26T05:18:20.243Z,6.17
2019-03-26T05:19:28.013Z,6.12
2019-03-26T05:20:36.035Z,6.15
2019-03-26T05:21:43.930Z,6.15
2019-03-26T05:22:51.718Z,6.15
2019-03-26T05:23:59.958Z,6.13
2019-03-26T05:25:08.782Z,6.11
2019-03-26T05:26:16.676Z,6.13
2019-03-26T05:27:24.548Z,6.12
2019-03-26T05:28:32.310Z,6.10
2019-03-26T05:29:40.080Z,6.14
2019-03-26T05:30:48.028Z,6.15
2019-03-26T05:31:57.394Z,6.14
2019-03-26T05:33:05.959Z,6.12
2019-03-26T05:34:13.874Z,6.10
2019-03-26T05:35:21.699Z,6.10
2019-03-26T05:36:29.678Z,6.14
2019-03-26T05:37:37.625Z,6.11
2019-03-26T05:38:45.738Z,6.12
2019-03-26T05:39:53.512Z,6.15
2019-03-26T05:41:01.404Z,6.16
2019-03-26T05:42:09.358Z,6.21
2019-03-26T05:43:17.129Z,6.21
2019-03-26T05:44:24.998Z,6.27
2019-03-26T05:45:32.756Z,6.28
2019-03-26T05:46:40.572Z,6.33
2019-03-26T05:47:48.348Z,6.36
2019-03-26T05:48:56.250Z,6.41
2019-03-26T05:50:07.784Z,6.46
2019-03-26T05:51:15.852Z,6.48
2019-03-26T05:52:23.649Z,6.46
2019-03-26T05:53:31.408Z,6.46
2019-03-26T05:54:39.218Z,6.44
2019-03-26T05:55:47.005Z,6.46
2019-03-26T05:56:54.744Z,6.47
2019-03-26T05:58:02.885Z,6.47
2019-03-26T05:59:10.802Z,6.46
2019-03-26T06:00:21.857Z,6.48
2019-03-26T06:01:29.916Z,6.54
2019-03-26T06:02:38.006Z,6.56
2019-03-26T06:03:45.937Z,6.60
2019-03-26T06:04:54.034Z,6.63
2019-03-26T06:06:02.763Z,6.68
2019-03-26T06:07:10.713Z,6.74
2019-03-26T06:08:18.690Z,6.78
2019-03-26T06:09:26.964Z,6.82
2019-03-26T06:10:34.833Z,6.86
2019-03-26T06:11:42.659Z,6.83
2019-03-26T06:12:50.513Z,6.84
2019-03-26T06:13:58.369Z,6.89
2019-03-26T06:15:09.415Z,6.84
2019-03-26T06:16:17.572Z,6.82
2019-03-26T06:17:25.627Z,6.88
2019-03-26T06:18:33.504Z,6.90
2019-03-26T06:19:41.242Z,6.97
2019-03-26T06:20:49.080Z,7.01
2019-03-26T06:21:57.425Z,7.01
2019-03-26T06:23:05.162Z,6.99
2019-03-26T06:24:13.206Z,7.03
2019-03-26T06:25:21.132Z,6.99
2019-03-26T06:26:29.066Z,6.89
2019-03-26T06:27:37.035Z,6.86
2019-03-26T06:28:44.787Z,6.90
2019-03-26T06:29:52.671Z,6.95
2019-03-26T06:31:00.866Z,6.98
2019-03-26T06:32:08.825Z,6.94
2019-03-26T06:33:16.828Z,6.95
2019-03-26T06:34:24.956Z,6.97
2019-03-26T06:35:33.054Z,6.97
2019-03-26T06:36:41.046Z,6.98
2019-03-26T06:37:49.238Z,7.03
2019-03-26T06:38:57.646Z,7.08
2019-03-26T06:40:09.966Z,7.09
2019-03-26T06:41:18.262Z,7.15
2019-03-26T06:42:26.746Z,7.20
2019-03-26T06:43:35.069Z,7.16
2019-03-26T06:44:43.045Z,7.10
2019-03-26T06:45:51.144Z,7.07
2019-03-26T06:46:59.485Z,7.11
2019-03-26T06:48:07.953Z,7.16
2019-03-26T06:49:16.122Z,7.19
2019-03-26T06:50:24.290Z,7.27
2019-03-26T06:51:32.111Z,7.34
2019-03-26T06:52:40.264Z,7.40
2019-03-26T06:53:48.374Z,7.38
2019-03-26T06:54:56.577Z,7.39
2019-03-26T06:56:04.795Z,7.40
2019-03-26T06:57:12.845Z,7.40
2019-03-26T06:58:21.026Z,7.43
2019-03-26T06:59:29.330Z,7.50
2019-03-26T07:00:37.543Z,7.51
2019-03-26T07:01:45.866Z,7.44
2019-03-26T07:02:54.023Z,7.46
2019-03-26T07:04:02.661Z,7.50
2019-03-26T07:05:12.059Z,7.53
2019-03-26T07:06:19.999Z,7.58
2019-03-26T07:07:31.782Z,7.65
2019-03-26T07:08:37.532Z,7.74
2019-03-26T07:09:45.488Z,7.80
2019-03-26T07:10:53.380Z,7.92
2019-03-26T07:12:01.396Z,8.00
2019-03-26T07:13:09.498Z,8.09
2019-03-26T07:14:17.444Z,8.14
2019-03-26T07:15:25.200Z,8.15
2019-03-26T07:16:33.131Z,8.14
2019-03-26T07:17:41.181Z,8.14
2019-03-26T07:18:49.249Z,8.15
2019-03-26T07:19:57.052Z,8.17
2019-03-26T07:21:05.496Z,8.15
2019-03-26T07:22:13.419Z,8.10
2019-03-26T07:23:21.422Z,8.09
2019-03-26T07:24:29.361Z,8.08
2019-03-26T07:25:37.398Z,8.08
2019-03-26T07:26:45.320Z,8.09
2019-03-26T07:27:53.160Z,8.10
2019-03-26T07:29:01.075Z,8.09
2019-03-26T07:30:11.842Z,8.12
2019-03-26T07:31:19.960Z,8.13
2019-03-26T07:32:28.073Z,8.20
2019-03-26T07:33:36.019Z,8.19
2019-03-26T07:34:44.026Z,8.22
2019-03-26T07:35:52.161Z,8.25
2019-03-26T07:36:59.862Z,8.28
2019-03-26T07:38:08.565Z,8.32
2019-03-26T07:39:16.470Z,8.33
2019-03-26T07:40:24.324Z,8.37
2019-03-26T07:41:32.048Z,8.45
2019-03-26T07:42:39.804Z,8.52
2019-03-26T07:43:47.540Z,8.47
2019-03-26T07:44:55.236Z,8.49
2019-03-26T07:46:03.536Z,8.51
2019-03-26T07:47:11.839Z,8.55
2019-03-26T07:48:20.052Z,8.63
2019-03-26T07:49:27.912Z,8.65
2019-03-26T07:50:35.781Z,8.61
2019-03-26T07:51:43.729Z,8.63
2019-03-26T07:52:51.821Z,8.67
2019-03-26T07:54:00.021Z,8.71
2019-03-26T07:55:09.435Z,8.79
2019-03-26T07:56:17.473Z,8.90
2019-03-26T07:57:25.600Z,8.98
2019-03-26T07:58:33.566Z,9.04
2019-03-26T07:59:41.522Z,9.08
2019-03-26T08:00:49.336Z,9.08
2019-03-26T08:01:57.259Z,9.10
2019-03-26T08:03:05.959Z,9.13
2019-03-26T08:04:14.191Z,9.10
2019-03-26T08:05:29.583Z,9.11
2019-03-26T08:06:31.705Z,9.13
2019-03-26T08:07:40.090Z,9.10
2019-03-26T08:08:48.178Z,9.09
2019-03-26T08:09:55.998Z,9.06
2019-03-26T08:11:03.862Z,9.13
2019-03-26T08:12:12.070Z,9.21
2019-03-26T08:13:20.066Z,9.29
2019-03-26T08:14:28.392Z,9.30
2019-03-26T08:15:36.569Z,9.31
2019-03-26T08:16:44.465Z,9.29
2019-03-26T08:17:52.544Z,9.13
2019-03-26T08:19:02.587Z,9.08
2019-03-26T08:20:12.597Z,9.10
2019-03-26T08:21:20.658Z,9.16
2019-03-26T08:22:30.476Z,9.08
2019-03-26T08:23:38.771Z,9.05
2019-03-26T08:24:46.761Z,9.06
2019-03-26T08:25:54.848Z,9.06
2019-03-26T08:27:02.635Z,9.04
2019-03-26T08:28:10.750Z,8.99
2019-03-26T08:29:18.837Z,8.98
2019-03-26T08:30:26.797Z,8.97
2019-03-26T08:31:34.806Z,8.98
2019-03-26T08:32:42.824Z,9.00
2019-03-26T08:33:50.566Z,8.98
2019-03-26T08:34:58.710Z,9.00
2019-03-26T08:36:06.843Z,9.03
2019-03-26T08:37:14.888Z,9.01
2019-03-26T08:38:22.883Z,9.03
2019-03-26T08:39:31.040Z,9.07
2019-03-26T08:40:39.297Z,9.13
2019-03-26T08:41:47.343Z,9.23
2019-03-26T08:42:55.279Z,9.29
2019-03-26T08:44:03.378Z,9.32
2019-03-26T08:45:11.941Z,9.29
2019-03-26T08:46:19.937Z,9.22
2019-03-26T08:47:28.062Z,9.19
2019-03-26T08:48:35.855Z,9.13
2019-03-26T08:49:44.107Z,9.20
2019-03-26T08:50:52.563Z,9.32
2019-03-26T08:52:00.670Z,9.41
2019-03-26T08:53:08.927Z,9.47
2019-03-26T08:54:17.479Z,9.54
2019-03-26T08:55:25.579Z,9.57
2019-03-26T08:56:33.766Z,9.62
2019-03-26T08:57:41.802Z,9.66
2019-03-26T08:58:50.091Z,9.66
2019-03-26T08:59:58.049Z,9.70
2019-03-26T09:01:06.150Z,9.66
2019-03-26T09:02:14.832Z,9.67
2019-03-26T09:03:22.698Z,9.68
2019-03-26T09:04:30.795Z,9.68
2019-03-26T09:05:38.910Z,9.72
2019-03-26T09:06:46.942Z,9.77
2019-03-26T09:07:54.982Z,9.81
2019-03-26T09:09:02.942Z,9.86
2019-03-26T09:10:13.205Z,9.88
2019-03-26T09:11:21.479Z,9.86
2019-03-26T09:12:29.508Z,9.84
2019-03-26T09:13:37.499Z,9.82
2019-03-26T09:14:45.512Z,9.80
2019-03-26T09:15:53.565Z,9.71
2019-03-26T09:17:01.780Z,9.64
2019-03-26T09:18:10.528Z,9.57
2019-03-26T09:19:18.555Z,9.54
2019-03-26T09:20:26.465Z,9.50
2019-03-26T09:21:34.402Z,9.51
2019-03-26T09:22:42.271Z,9.56
2019-03-26T09:23:50.344Z,9.58
2019-03-26T09:24:58.236Z,9.60
2019-03-26T09:26:06.242Z,9.58
2019-03-26T09:27:14.638Z,9.53
2019-03-26T09:28:22.642Z,9.48
2019-03-26T09:29:30.795Z,9.48
2019-03-26T09:30:38.966Z,9.54
2019-03-26T09:31:46.819Z,9.63
2019-03-26T09:32:55.115Z,9.67
2019-03-26T09:34:03.443Z,9.72
2019-03-26T09:35:12.382Z,9.75
2019-03-26T09:36:20.450Z,9.68
2019-03-26T09:37:28.443Z,9.65
2019-03-26T09:38:39.282Z,9.60
2019-03-26T09:39:46.053Z,9.55
2019-03-26T09:40:53.960Z,9.59
2019-03-26T09:42:02.130Z,9.55
2019-03-26T09:43:10.139Z,9.62
2019-03-26T09:44:18.231Z,9.74
2019-03-26T09:45:26.471Z,9.80
2019-03-26T09:46:34.541Z,9.90
2019-03-26T09:47:42.688Z,9.88
2019-03-26T09:48:50.516Z,9.88
2019-03-26T09:49:58.465Z,9.95
2019-03-26T09:51:06.441Z,9.88
2019-03-26T09:52:14.436Z,9.83
2019-03-26T09:53:23.772Z,9.80
2019-03-26T09:54:32.130Z,9.71
2019-03-26T09:55:40.346Z,9.59
2019-03-26T09:56:48.523Z,9.52
2019-03-26T09:57:56.579Z,9.45
2019-03-26T09:59:04.741Z,9.40
2019-03-26T10:00:13.994Z,9.45
2019-03-26T10:01:22.027Z,9.45
2019-03-26T10:02:30.004Z,9.42
2019-03-26T10:03:37.967Z,9.46
2019-03-26T10:04:46.055Z,9.46
2019-03-26T10:05:54.037Z,9.52
2019-03-26T10:07:01.834Z,9.62
2019-03-26T10:08:10.074Z,9.64
2019-03-26T10:09:18.058Z,9.65
2019-03-26T10:10:26.130Z,9.55
2019-03-26T10:11:34.182Z,9.46
2019-03-26T10:12:42.256Z,9.44
2019-03-26T10:13:50.166Z,9.40
2019-03-26T10:14:58.281Z,9.48
2019-03-26T10:16:06.306Z,9.46
2019-03-26T10:17:14.827Z,9.40
2019-03-26T10:18:22.934Z,9.36
2019-03-26T10:19:31.201Z,9.28
2019-03-26T10:20:39.311Z,9.19
2019-03-26T10:21:47.408Z,9.19
2019-03-26T10:22:55.534Z,9.23
2019-03-26T10:24:03.806Z,9.30
2019-03-26T10:25:11.980Z,9.35
2019-03-26T10:26:20.317Z,9.37
2019-03-26T10:27:28.468Z,9.37
2019-03-26T10:28:36.378Z,9.39
2019-03-26T10:29:44.253Z,9.46
2019-03-26T10:30:52.488Z,9.43
2019-03-26T10:32:00.581Z,9.42
2019-03-26T10:33:09.297Z,9.44
2019-03-26T10:34:17.464Z,9.36
2019-03-26T10:35:25.783Z,9.30
2019-03-26T10:36:34.201Z,9.35
2019-03-26T10:37:42.278Z,9.40
2019-03-26T10:39:05.104Z,9.44
2019-03-26T10:40:04.035Z,9.43
2019-03-26T10:41:11.805Z,9.40
2019-03-26T10:42:19.989Z,9.38
2019-03-26T10:43:28.037Z,9.38
2019-03-26T10:44:36.099Z,9.32
2019-03-26T10:45:44.342Z,9.27
2019-03-26T10:46:52.293Z,9.30
2019-03-26T10:48:00.328Z,9.61
2019-03-26T10:49:08.366Z,9.78
2019-03-26T10:50:16.652Z,10.12
2019-03-26T10:51:24.781Z,10.44
2019-03-26T10:52:34.268Z,10.48
2019-03-26T10:53:42.359Z,10.66
2019-03-26T10:54:50.463Z,10.78
2019-03-26T10:55:58.379Z,11.07
2019-03-26T10:57:06.583Z,11.44
2019-03-26T10:58:14.680Z,11.84
2019-03-26T10:59:22.810Z,12.17
2019-03-26T11:00:30.977Z,12.48
2019-03-26T11:01:39.191Z,12.41
2019-03-26T11:02:47.340Z,12.59
2019-03-26T11:03:55.279Z,12.62
2019-03-26T11:05:03.319Z,12.56
2019-03-26T11:06:12.793Z,12.50
2019-03-26T11:07:21.094Z,12.24
2019-03-26T11:08:29.650Z,12.07
2019-03-26T11:09:38.011Z,12.32
2019-03-26T11:10:46.045Z,12.57
2019-03-26T11:11:53.993Z,12.35
2019-03-26T11:13:02.414Z,12.34
2019-03-26T11:14:10.619Z,12.25
2019-03-26T11:15:19.205Z,12.09
2019-03-26T11:16:27.248Z,12.06
2019-03-26T11:17:35.095Z,12.07
2019-03-26T11:18:43.079Z,12.29
2019-03-26T11:19:51.424Z,12.48
2019-03-26T11:21:03.306Z,12.60
2019-03-26T11:22:09.318Z,12.64
2019-03-26T11:23:17.427Z,12.48
2019-03-26T11:24:25.412Z,12.42
2019-03-26T11:25:33.363Z,12.75
2019-03-26T11:26:41.217Z,13.08
2019-03-26T11:27:49.319Z,13.40
2019-03-26T11:28:57.405Z,13.79
2019-03-26T11:30:08.411Z,13.80
2019-03-26T11:31:16.243Z,13.61
2019-03-26T11:32:24.328Z,13.47
2019-03-26T11:33:32.493Z,13.41
2019-03-26T11:34:40.270Z,13.60
2019-03-26T11:35:48.255Z,13.79
2019-03-26T11:36:56.170Z,14.01
2019-03-26T11:38:04.179Z,14.08
2019-03-26T11:39:12.248Z,14.33
2019-03-26T11:40:20.777Z,14.44
2019-03-26T11:41:29.343Z,14.11
2019-03-26T11:42:37.468Z,13.91
2019-03-26T11:43:45.545Z,14.10
2019-03-26T11:44:53.537Z,14.04
2019-03-26T11:46:01.520Z,13.71
2019-03-26T11:47:09.823Z,13.68
2019-03-26T11:48:17.741Z,13.76
2019-03-26T11:49:25.947Z,13.59
2019-03-26T11:50:34.185Z,13.45
2019-03-26T11:51:42.542Z,13.42
2019-03-26T11:52:50.840Z,13.00
2019-03-26T11:53:59.250Z,12.80
2019-03-26T11:55:09.795Z,12.60
2019-03-26T11:56:18.169Z,12.58
2019-03-26T11:57:26.210Z,12.35
2019-03-26T11:58:34.252Z,12.07
2019-03-26T11:59:42.798Z,11.87
2019-03-26T12:00:51.152Z,11.76
2019-03-26T12:01:59.602Z,11.65
2019-03-26T12:03:08.001Z,11.56
2019-03-26T12:04:15.905Z,11.81
2019-03-26T12:05:24.220Z,12.31
2019-03-26T12:06:32.056Z,12.76
2019-03-26T12:07:42.812Z,13.14
2019-03-26T12:08:50.125Z,13.50
2019-03-26T12:09:58.029Z,13.50
2019-03-26T12:11:06.200Z,13.46
2019-03-26T12:12:14.521Z,13.65
2019-03-26T12:13:23.001Z,13.37
2019-03-26T12:14:31.021Z,12.91
2019-03-26T12:15:39.254Z,12.52
2019-03-26T12:16:47.239Z,12.27
2019-03-26T12:17:55.527Z,12.11
2019-03-26T12:19:03.530Z,12.03
2019-03-26T12:20:11.918Z,11.96
2019-03-26T12:21:19.938Z,12.20
2019-03-26T12:22:31.293Z,12.37
2019-03-26T12:23:38.061Z,12.54
2019-03-26T12:24:46.213Z,12.76
2019-03-26T12:25:54.126Z,13.13
2019-03-26T12:27:02.770Z,13.40
2019-03-26T12:28:11.488Z,13.54
2019-03-26T12:29:19.866Z,13.55
2019-03-26T12:30:36.682Z,13.37
2019-03-26T12:31:44.778Z,13.41
2019-03-26T12:32:53.116Z,13.67
2019-03-26T12:34:01.630Z,14.06
2019-03-26T12:35:11.893Z,14.51
2019-03-26T12:36:20.012Z,14.79
2019-03-26T12:37:28.694Z,14.53
2019-03-26T12:38:36.648Z,14.56
2019-03-26T12:39:44.955Z,14.75
2019-03-26T12:40:53.265Z,14.81
2019-03-26T12:42:01.247Z,14.96
2019-03-26T12:43:09.421Z,15.04
2019-03-26T12:44:17.412Z,15.09
2019-03-26T12:45:26.026Z,15.34
2019-03-26T12:46:34.227Z,15.37
2019-03-26T12:47:42.462Z,15.45
2019-03-26T12:48:50.584Z,15.65
2019-03-26T12:49:58.511Z,15.85
2019-03-26T12:51:06.718Z,15.94
2019-03-26T12:52:14.789Z,15.92
2019-03-26T12:53:22.884Z,15.94
2019-03-26T12:54:31.073Z,15.89
2019-03-26T12:55:39.201Z,15.59
2019-03-26T12:56:47.299Z,15.28
2019-03-26T12:57:55.362Z,14.83
2019-03-26T12:59:03.273Z,14.38
2019-03-26T13:00:11.617Z,14.13
2019-03-26T13:01:19.667Z,14.03
2019-03-26T13:02:27.955Z,13.83
2019-03-26T13:03:36.107Z,13.60
2019-03-26T13:04:44.168Z,13.58
2019-03-26T13:05:52.378Z,13.51
2019-03-26T13:07:00.306Z,13.43
2019-03-26T13:08:08.364Z,13.36
2019-03-26T13:09:16.192Z,13.18
2019-03-26T13:10:24.187Z,13.09
2019-03-26T13:11:32.061Z,13.02
2019-03-26T13:12:39.999Z,12.88
2019-03-26T13:13:48.340Z,12.80
2019-03-26T13:14:59.253Z,12.64
2019-03-26T13:16:06.169Z,12.47
2019-03-26T13:17:14.187Z,12.33
2019-03-26T13:18:22.284Z,12.12
2019-03-26T13:19:30.802Z,11.99
2019-03-26T13:20:38.873Z,11.78
2019-03-26T13:21:46.778Z,11.62
2019-03-26T13:22:54.865Z,11.47
2019-03-26T13:24:03.062Z,11.28
2019-03-26T13:25:11.220Z,11.16
2019-03-26T13:26:19.356Z,11.03
2019-03-26T13:27:27.536Z,10.97
2019-03-26T13:28:35.583Z,10.89
2019-03-26T13:29:43.505Z,10.73
2019-03-26T13:30:51.547Z,10.65
2019-03-26T13:31:59.867Z,10.48
2019-03-26T13:33:07.935Z,10.39
2019-03-26T13:34:15.775Z,10.29
2019-03-26T13:35:23.784Z,10.21
2019-03-26T13:36:32.341Z,10.20
2019-03-26T13:37:40.265Z,10.13
2019-03-26T13:38:48.138Z,10.11
2019-03-26T13:39:55.998Z,10.09
2019-03-26T13:41:03.958Z,10.16
2019-03-26T13:42:12.098Z,10.19
2019-03-26T13:43:20.064Z,10.19
2019-03-26T13:44:27.999Z,10.13
2019-03-26T13:45:36.090Z,10.10
2019-03-26T13:46:44.479Z,10.11
2019-03-26T13:47:52.745Z,10.07
2019-03-26T13:49:00.581Z,10.07
2019-03-26T13:50:10.265Z,10.02
2019-03-26T13:51:18.298Z,9.97
2019-03-26T13:52:26.301Z,9.95
2019-03-26T13:53:34.450Z,9.89
2019-03-26T13:54:42.685Z,9.87
2019-03-26T13:55:50.578Z,9.80
2019-03-26T13:56:58.347Z,9.78
2019-03-26T13:58:06.682Z,9.74
2019-03-26T13:59:14.400Z,9.70
2019-03-26T14:00:34.363Z,9.73
2019-03-26T14:01:42.952Z,9.67
2019-03-26T14:02:50.866Z,9.70
2019-03-26T14:03:59.169Z,9.71
2019-03-26T14:05:25.728Z,9.67
2019-03-26T14:06:34.007Z,9.64
2019-03-26T14:07:41.973Z,9.81
2019-03-26T14:08:50.169Z,10.02
2019-03-26T14:09:58.197Z,10.24
2019-03-26T14:11:06.567Z,10.46
2019-03-26T14:12:14.639Z,10.52
2019-03-26T14:13:22.672Z,10.56
2019-03-26T14:14:30.725Z,10.71
2019-03-26T14:15:38.736Z,10.85
2019-03-26T14:16:46.961Z,10.95
2019-03-26T14:17:55.243Z,10.97
2019-03-26T14:19:03.212Z,11.02
2019-03-26T14:20:11.401Z,11.05
2019-03-26T14:21:19.755Z,11.21
2019-03-26T14:22:27.748Z,11.34
2019-03-26T14:23:36.071Z,11.46
2019-03-26T14:24:44.024Z,11.58
2019-03-26T14:25:51.817Z,11.70
2019-03-26T14:26:59.835Z,11.90
2019-03-26T14:28:08.033Z,12.27
2019-03-26T14:29:16.124Z,12.55
2019-03-26T14:30:42.681Z,12.62
2019-03-26T14:31:50.590Z,12.80
2019-03-26T14:32:58.891Z,12.88
2019-03-26T14:34:06.846Z,12.94
2019-03-26T14:35:15.040Z,13.10
2019-03-26T14:36:23.213Z,13.23
2019-03-26T14:37:31.426Z,13.41
2019-03-26T14:38:39.706Z,13.45
2019-03-26T14:39:47.720Z,13.37
2019-03-26T14:40:55.832Z,13.36
2019-03-26T14:42:03.889Z,13.37
2019-03-26T14:43:11.921Z,13.51
2019-03-26T14:44:19.925Z,13.54
2019-03-26T14:45:27.890Z,13.68
2019-03-26T14:46:36.480Z,13.66
2019-03-26T14:47:44.619Z,13.78
2019-03-26T14:48:52.623Z,13.94
2019-03-26T14:50:00.717Z,14.01
2019-03-26T14:51:08.813Z,14.15
2019-03-26T14:52:16.711Z,14.34
2019-03-26T14:53:24.778Z,14.33
2019-03-26T14:54:32.804Z,14.32
2019-03-26T14:55:41.100Z,14.23
2019-03-26T14:56:49.061Z,14.14
2019-03-26T14:57:57.092Z,13.97
2019-03-26T14:59:05.385Z,13.91
2019-03-26T15:00:13.911Z,13.95
2019-03-26T15:01:21.963Z,13.77